Time;durP1;ratioP1;P1;durP2;ratioP2;P2;SDS_P1;SDS_P2;PMS_P1;PMS_P2;Temp;Humidity;BMP_temperature;BMP_pressure;BME280_temperature;BME280_humidity;BME280_pressure;Samples;Min_cycle;Max_cycle;Signal;HPM_P1;HPM_P2
2022/10/07 00:00:46;;;;;;;8.20;5.85;;;;;;;15.13;68.42;100529.25;1772329;81;20977;-44
2022/10/07 00:03:13;;;;;;;10.98;5.78;;;;;;;15.09;68.40;100531.70;1772185;80;20933;-44
2022/10/07 00:05:40;;;;;;;8.28;5.60;;;;;;;15.07;68.58;100525.80;1772312;81;21020;-44
2022/10/07 00:08:08;;;;;;;8.95;5.97;;;;;;;15.08;68.58;100530.91;1777522;79;21517;-44
2022/10/07 00:10:40;;;;;;;8.78;6.05;;;;;;;15.10;68.41;100533.28;1797334;79;21501;-44
2022/10/07 00:13:08;;;;;;;12.88;6.10;;;;;;;15.06;68.45;100526.94;1797482;79;20967;-44
2022/10/07 00:15:37;;;;;;;7.20;6.20;;;;;;;15.01;68.56;100527.23;1797943;79;21225;-44
2022/10/07 00:18:04;;;;;;;9.60;5.97;;;;;;;14.97;68.85;100533.99;1797740;79;21055;-44
2022/10/07 00:20:38;;;;;;;7.20;6.10;;;;;;;14.89;69.12;100535.01;1797607;79;21337;-44
2022/10/07 00:23:06;;;;;;;7.62;6.00;;;;;;;14.82;69.27;100531.33;1797549;79;20970;-44
2022/10/07 00:25:39;;;;;;;8.67;5.87;;;;;;;14.82;69.32;100530.76;1798215;79;21022;-44
2022/10/07 00:28:08;;;;;;;8.00;6.03;;;;;;;14.85;69.40;100538.25;1797505;79;21270;-44
2022/10/07 00:30:36;;;;;;;8.95;5.55;;;;;;;14.81;69.35;100540.12;1797654;79;21035;-44
2022/10/07 00:33:03;;;;;;;8.60;6.45;;;;;;;14.79;69.38;100536.38;1797402;79;21203;-44
2022/10/07 00:35:30;;;;;;;9.45;6.60;;;;;;;14.76;69.39;100539.04;1797213;79;21501;-43
2022/10/07 00:37:59;;;;;;;7.65;5.65;;;;;;;14.72;69.38;100536.78;1792790;79;20944;-44
2022/10/07 00:40:27;;;;;;;9.70;6.03;;;;;;;14.68;69.41;100537.30;1797243;79;21043;-44
2022/10/07 00:42:54;;;;;;;8.65;5.97;;;;;;;14.69;69.35;100538.31;1797557;79;20978;-44
2022/10/07 00:45:21;;;;;;;6.92;5.95;;;;;;;14.69;69.19;100542.40;1791774;79;21311;-44
2022/10/07 00:47:50;;;;;;;8.93;6.40;;;;;;;14.66;69.11;100551.89;1797471;79;21501;-44
2022/10/07 00:50:20;;;;;;;10.20;6.67;;;;;;;14.61;69.27;100553.53;1797743;79;21027;-44
2022/10/07 00:52:54;;;;;;;9.30;6.25;;;;;;;14.56;69.54;100562.79;1797465;79;21565;-44
2022/10/07 00:55:23;;;;;;;7.17;6.45;;;;;;;14.50;69.75;100560.69;1797846;79;22149;-44
2022/10/07 00:57:51;;;;;;;9.20;6.47;;;;;;;14.47;69.90;100568.23;1797654;79;21156;-44
2022/10/07 01:00:22;;;;;;;10.13;6.67;;;;;;;14.48;69.96;100571.16;1797945;79;21532;-44
2022/10/07 01:02:50;;;;;;;9.18;6.20;;;;;;;14.46;70.14;100576.98;1792297;79;20963;-44
2022/10/07 01:05:18;;;;;;;9.85;6.87;;;;;;;14.43;70.25;100579.05;1797793;79;21549;-44
2022/10/07 01:07:46;;;;;;;9.55;6.65;;;;;;;14.42;70.28;100573.96;1797651;79;20975;-44
2022/10/07 01:10:17;;;;;;;12.35;6.37;;;;;;;14.37;70.26;100576.96;1784749;79;21109;-44
2022/10/07 01:13:04;;;;;;;9.75;6.20;;;;;;;14.33;70.29;100576.83;1783667;79;21566;-44
2022/10/07 01:15:44;;;;;;;10.80;6.67;;;;;;;14.33;70.40;100580.35;1783888;79;21094;-44
2022/10/07 01:18:38;;;;;;;8.85;6.87;;;;;;;14.31;70.44;100584.59;1767360;80;21071;-44
2022/10/07 01:21:30;;;;;;;8.13;6.97;;;;;;;14.23;70.70;100580.89;1783525;79;21601;-44
2022/10/07 01:24:37;;;;;;;8.88;6.70;;;;;;;14.14;70.97;100578.12;1783301;79;21220;-44
2022/10/07 01:27:17;;;;;;;8.25;5.97;;;;;;;14.08;71.29;100585.81;1798800;79;20953;-44
2022/10/07 01:29:54;;;;;;;7.67;5.85;;;;;;;14.08;71.49;100585.81;1802912;79;21630;-44
2022/10/07 01:32:40;;;;;;;11.57;6.20;;;;;;;14.10;71.59;100583.51;1807048;79;21072;-44
2022/10/07 01:35:14;;;;;;;8.13;6.17;;;;;;;14.10;71.67;100595.78;1807903;79;21087;-44
2022/10/07 01:37:45;;;;;;;9.78;6.60;;;;;;;14.09;71.84;100593.39;1807060;79;21066;-44
2022/10/07 01:40:20;;;;;;;10.40;5.90;;;;;;;14.08;71.85;100594.56;1778732;79;20929;-44
2022/10/07 01:42:46;;;;;;;8.95;5.70;;;;;;;14.06;71.82;100594.11;1807827;79;20965;-44
2022/10/07 01:45:20;;;;;;;7.15;5.95;;;;;;;14.07;71.91;100592.41;1807819;79;21025;-44
2022/10/07 01:47:44;;;;;;;10.40;6.20;;;;;;;14.06;72.10;100594.11;1807807;79;21041;-44
2022/10/07 01:50:13;;;;;;;7.72;6.35;;;;;;;14.04;72.22;100595.05;1808052;79;21341;-44
2022/10/07 01:53:16;;;;;;;10.65;6.45;;;;;;;14.04;72.23;100602.63;1808474;79;21483;-44
2022/10/07 01:56:19;;;;;;;8.65;5.83;;;;;;;14.03;72.19;100602.44;1808322;79;21004;-44
2022/10/07 01:59:18;;;;;;;10.30;6.53;;;;;;;14.02;72.06;100602.78;1808220;79;21472;-44
2022/10/07 02:01:53;;;;;;;10.63;6.25;;;;;;;14.05;72.05;100602.86;1771343;79;21445;-44
2022/10/07 02:04:40;;;;;;;10.50;6.30;;;;;;;14.07;72.08;100606.04;1807998;78;23103;-44
2022/10/07 02:07:35;;;;;;;9.33;6.53;;;;;;;14.06;71.97;100614.00;1807984;78;20968;-44
2022/10/07 02:10:20;;;;;;;7.35;6.28;;;;;;;14.04;72.03;100620.36;1801835;78;21000;-44
2022/10/07 02:12:59;;;;;;;6.42;5.62;;;;;;;14.05;71.93;100619.22;1799557;79;21013;-44
2022/10/07 02:15:35;;;;;;;8.18;5.87;;;;;;;14.08;71.90;100620.47;1769355;79;21527;-44
2022/10/07 02:18:06;;;;;;;8.98;6.33;;;;;;;14.08;71.82;100619.91;1799506;79;21228;-44
2022/10/07 02:20:35;;;;;;;9.40;6.85;;;;;;;14.07;71.70;100628.42;1794652;79;21024;-44
2022/10/07 02:23:04;;;;;;;8.90;6.20;;;;;;;14.06;71.58;100628.99;1799910;79;21000;-44
2022/10/07 02:25:36;;;;;;;10.08;5.92;;;;;;;14.04;71.45;100638.68;1799420;79;20949;-44
2022/10/07 02:28:05;;;;;;;8.60;5.85;;;;;;;13.99;71.41;100641.06;1799640;79;20966;-44
2022/10/07 02:30:32;;;;;;;8.18;6.20;;;;;;;14.02;71.30;100645.05;1799805;79;21621;-44
2022/10/07 02:33:04;;;;;;;9.10;6.30;;;;;;;14.03;71.21;100655.61;1799664;79;20974;-44
2022/10/07 02:35:41;;;;;;;8.55;6.87;;;;;;;14.01;71.05;100652.42;1799506;79;21004;-44
2022/10/07 02:38:14;;;;;;;9.88;7.10;;;;;;;13.98;71.13;100653.14;1799915;79;21012;-44
2022/10/07 02:40:46;;;;;;;11.43;6.70;;;;;;;13.91;71.21;100654.30;1799540;79;21068;-45
2022/10/07 02:43:18;;;;;;;7.10;6.10;;;;;;;13.89;71.21;100660.70;1799529;78;21081;-45
2022/10/07 02:45:50;;;;;;;7.72;6.62;;;;;;;13.89;71.05;100659.33;1798576;79;20993;-44
2022/10/07 02:48:25;;;;;;;8.45;6.78;;;;;;;13.87;70.76;100662.41;1799556;79;21530;-45
2022/10/07 02:50:55;;;;;;;7.90;6.35;;;;;;;13.81;70.95;100663.00;1769321;79;21488;-44
2022/10/07 02:53:23;;;;;;;8.55;6.87;;;;;;;13.76;70.82;100661.31;1768704;79;20994;-44
2022/10/07 02:55:50;;;;;;;9.90;6.22;;;;;;;13.72;70.97;100662.37;1769156;79;21531;-45
2022/10/07 02:58:18;;;;;;;7.87;5.87;;;;;;;13.72;71.15;100674.63;1799462;79;20989;-45
2022/10/07 03:00:49;;;;;;;11.88;6.60;;;;;;;13.73;71.43;100674.86;1768846;79;20965;-45
2022/10/07 03:03:17;;;;;;;11.10;5.95;;;;;;;13.70;71.81;100678.29;1769204;79;21018;-45
2022/10/07 03:05:52;;;;;;;8.53;6.25;;;;;;;13.61;72.42;100676.27;1798591;79;21065;-45
2022/10/07 03:08:20;;;;;;;8.03;5.55;;;;;;;13.53;72.87;100679.38;1799311;79;21187;-44
2022/10/07 03:10:47;;;;;;;7.70;5.20;;;;;;;13.48;73.09;100685.86;1799399;79;21933;-45
2022/10/07 03:13:15;;;;;;;7.60;5.30;;;;;;;13.47;73.28;100691.08;1799255;79;21798;-45
2022/10/07 03:15:45;;;;;;;7.62;5.37;;;;;;;13.48;73.38;100689.16;1799425;79;21076;-45
2022/10/07 03:18:27;;;;;;;7.45;5.40;;;;;;;13.47;73.44;100698.46;1798966;79;21064;-45
2022/10/07 03:21:12;;;;;;;9.88;5.20;;;;;;;13.39;73.51;100692.03;1799361;79;23076;-44
2022/10/07 03:23:39;;;;;;;8.25;5.17;;;;;;;13.34;73.61;100695.56;1799408;79;21580;-44
2022/10/07 03:26:06;;;;;;;8.78;5.40;;;;;;;13.33;73.61;100699.41;1799443;79;21196;-44
2022/10/07 03:28:38;;;;;;;10.45;5.55;;;;;;;13.32;73.64;100695.89;1799517;79;21594;-44
2022/10/07 03:31:05;;;;;;;9.00;5.00;;;;;;;13.29;73.69;100695.80;1799294;78;21072;-45
2022/10/07 03:33:33;;;;;;;6.85;4.30;;;;;;;13.24;73.74;100702.84;1799601;79;21099;-45
2022/10/07 03:36:01;;;;;;;8.15;4.95;;;;;;;13.22;73.67;100700.45;1799517;79;20954;-45
2022/10/07 03:38:28;;;;;;;7.22;4.67;;;;;;;13.24;73.55;100702.84;1799574;79;21001;-45
2022/10/07 03:40:55;;;;;;;7.10;4.87;;;;;;;13.26;73.36;100700.59;1799867;79;21009;-45
2022/10/07 03:43:22;;;;;;;7.70;4.83;;;;;;;13.24;73.30;100700.92;1799732;79;21025;-45
2022/10/07 03:45:50;;;;;;;6.15;4.78;;;;;;;13.17;73.23;100696.61;1799726;79;21550;-45
2022/10/07 03:48:18;;;;;;;5.62;4.30;;;;;;;13.11;73.21;100702.09;1768745;79;21476;-44
2022/10/07 03:50:51;;;;;;;5.75;3.95;;;;;;;13.12;73.12;100706.97;1799444;79;21076;-45
2022/10/07 03:53:19;;;;;;;10.82;4.70;;;;;;;13.12;73.08;100707.73;1799305;79;21068;-45
2022/10/07 03:55:46;;;;;;;9.03;4.53;;;;;;;13.12;73.02;100708.33;1799214;79;21026;-45
2022/10/07 03:58:13;;;;;;;7.20;4.53;;;;;;;13.08;72.94;100706.25;1799213;79;21213;-44
2022/10/07 04:00:40;;;;;;;10.23;4.30;;;;;;;13.04;72.85;100712.72;1799451;79;20985;-44
2022/10/07 04:03:09;;;;;;;6.60;4.05;;;;;;;12.96;72.94;100716.38;1799554;79;20937;-44
2022/10/07 04:05:37;;;;;;;10.08;4.55;;;;;;;12.95;72.90;100720.23;1786858;79;20999;-44
2022/10/07 04:08:04;;;;;;;7.22;4.37;;;;;;;12.97;72.82;100723.41;1783744;79;21073;-45
2022/10/07 04:10:33;;;;;;;7.03;4.35;;;;;;;12.94;72.91;100722.72;1777488;79;21509;-45
2022/10/07 04:13:00;;;;;;;9.00;4.62;;;;;;;12.89;72.93;100714.22;1773170;80;21043;-45
2022/10/07 04:15:29;;;;;;;10.08;4.78;;;;;;;12.85;72.96;100725.56;1773314;80;21481;-45
2022/10/07 04:17:58;;;;;;;10.55;3.62;;;;;;;12.85;72.97;100727.48;1788902;80;21067;-44
2022/10/07 04:20:27;;;;;;;6.97;4.40;;;;;;;12.87;72.90;100723.88;1790590;80;21025;-45
2022/10/07 04:22:56;;;;;;;9.38;3.92;;;;;;;12.86;72.97;100729.08;1786977;80;21135;-45
2022/10/07 04:25:32;;;;;;;10.00;4.73;;;;;;;12.83;72.95;100731.14;1773592;80;20963;-45
2022/10/07 04:28:03;;;;;;;8.93;3.80;;;;;;;12.79;72.85;100731.00;1773508;80;21057;-45
2022/10/07 04:30:32;;;;;;;8.18;3.87;;;;;;;12.77;72.73;100731.92;1772518;80;21069;-45
2022/10/07 04:33:01;;;;;;;6.62;4.00;;;;;;;12.79;72.62;100733.72;1773595;80;21042;-44
2022/10/07 04:35:30;;;;;;;6.05;3.87;;;;;;;12.78;72.61;100734.08;1773401;80;21133;-44
2022/10/07 04:37:57;;;;;;;9.08;3.70;;;;;;;12.76;72.52;100733.62;1773261;80;20916;-44
2022/10/07 04:40:26;;;;;;;8.25;4.00;;;;;;;12.73;72.41;100737.80;1773393;80;21023;-44
2022/10/07 04:45:39;;;;;;;5.67;3.42;;;;;;;12.64;72.48;100742.00;1773457;80;21062;-44
2022/10/07 04:48:06;;;;;;;6.72;3.98;;;;;;;12.68;72.35;100745.41;1773020;80;22057;-45
2022/10/07 04:50:37;;;;;;;10.28;3.70;;;;;;;12.70;72.33;100744.49;1773121;80;21021;-44
2022/10/07 04:53:06;;;;;;;6.12;4.17;;;;;;;12.69;72.34;100740.18;1773280;80;21494;-45
2022/10/07 04:55:38;;;;;;;9.48;4.30;;;;;;;12.71;72.17;100746.09;1749892;80;21525;-44
2022/10/07 04:58:05;;;;;;;6.15;3.50;;;;;;;12.71;72.06;100749.61;1773136;80;21015;-44
2022/10/07 05:00:34;;;;;;;7.05;3.35;;;;;;;12.74;72.04;100751.64;1773530;80;21124;-44
2022/10/07 05:03:01;;;;;;;8.08;3.60;;;;;;;12.79;71.88;100754.13;1773189;80;21062;-44
2022/10/07 05:05:29;;;;;;;4.58;3.15;;;;;;;12.81;71.78;100749.72;1725135;80;21058;-44
2022/10/07 05:07:56;;;;;;;7.05;3.75;;;;;;;12.78;71.81;100749.81;1773161;80;20972;-44
2022/10/07 05:10:24;;;;;;;8.65;4.00;;;;;;;12.78;71.71;100751.17;1773244;80;21038;-44
2022/10/07 05:12:51;;;;;;;9.98;3.60;;;;;;;12.78;71.55;100759.34;1773211;80;21183;-44
2022/10/07 05:15:21;;;;;;;7.00;3.75;;;;;;;12.82;71.42;100757.55;1773284;80;20955;-44
2022/10/07 05:17:49;;;;;;;8.70;3.70;;;;;;;12.88;71.23;100756.17;1773377;80;21086;-44
2022/10/07 05:20:17;;;;;;;8.53;4.03;;;;;;;12.96;71.17;100762.65;1773479;80;21038;-44
2022/10/07 05:22:44;;;;;;;8.88;4.67;;;;;;;12.99;71.07;100757.31;1773575;80;21041;-44
2022/10/07 05:25:11;;;;;;;6.78;3.55;;;;;;;13.01;71.00;100765.94;1773289;80;21225;-44
2022/10/07 05:27:39;;;;;;;5.78;3.92;;;;;;;13.03;70.94;100768.30;1773370;80;21003;-44
2022/10/07 05:30:09;;;;;;;8.65;3.80;;;;;;;13.07;70.73;100769.20;1773331;80;20948;-44
2022/10/07 05:32:37;;;;;;;10.10;4.00;;;;;;;13.12;70.68;100776.41;1773361;80;21006;-44
2022/10/07 05:35:06;;;;;;;5.70;3.75;;;;;;;13.17;70.62;100778.30;1773471;80;20983;-44
2022/10/07 05:37:33;;;;;;;9.20;3.73;;;;;;;13.19;70.61;100783.42;1773778;80;21497;-44
2022/10/07 05:40:00;;;;;;;8.08;3.75;;;;;;;13.21;70.61;100781.16;1773397;80;20990;-44
2022/10/07 05:42:27;;;;;;;7.30;3.35;;;;;;;13.20;70.62;100783.09;1773449;80;21015;-44
2022/10/07 05:44:55;;;;;;;7.60;3.60;;;;;;;13.25;70.58;100786.14;1773322;80;21010;-44
2022/10/07 05:47:22;;;;;;;6.55;3.52;;;;;;;13.30;70.53;100786.70;1773517;80;21019;-44
2022/10/07 05:49:50;;;;;;;6.20;3.60;;;;;;;13.35;70.49;100791.92;1773309;80;21248;-44
2022/10/07 05:52:20;;;;;;;8.88;4.03;;;;;;;13.39;70.76;100796.91;1773322;80;21520;-44
2022/10/07 05:54:46;;;;;;;8.08;4.10;;;;;;;13.43;70.84;100799.16;1773269;80;21027;-44
2022/10/07 05:57:13;;;;;;;8.05;4.37;;;;;;;13.46;70.70;100806.64;1773406;80;21015;-44
2022/10/07 05:59:42;;;;;;;6.12;3.77;;;;;;;13.46;70.60;100809.92;1773694;80;21485;-44
2022/10/07 06:02:14;;;;;;;6.50;3.60;;;;;;;13.46;70.53;100808.00;1773541;80;21929;-44
2022/10/07 06:04:42;;;;;;;8.68;3.47;;;;;;;13.50;70.54;100809.48;1773887;80;20923;-44
2022/10/07 06:07:10;;;;;;;9.03;3.77;;;;;;;13.55;70.62;100812.55;1773527;80;21062;-44
2022/10/07 06:15:09;;;;;;;8.08;3.60;;;;;;;13.57;70.90;100815.14;1773306;80;21157;-44
2022/10/07 06:17:43;;;;;;;7.70;3.92;;;;;;;13.61;71.04;100809.78;1773320;80;20924;-44
2022/10/07 06:20:13;;;;;;;8.88;3.65;;;;;;;13.67;70.95;100815.23;1773309;80;20966;-44
2022/10/07 06:22:41;;;;;;;8.38;4.05;;;;;;;13.73;70.98;100817.95;1773841;80;21090;-44
2022/10/07 06:27:45;;;;;;;10.55;3.95;;;;;;;13.78;70.83;100821.23;1830031;78;23358;-43
2022/10/07 06:30:13;;;;;;;9.48;3.60;;;;;;;13.84;70.56;100822.58;1802244;79;20993;-41
2022/10/07 06:32:40;;;;;;;7.85;3.42;;;;;;;13.86;70.34;100824.38;1802563;79;21115;-43
2022/10/07 06:35:08;;;;;;;8.68;3.60;;;;;;;13.96;69.55;100826.38;1798600;79;20956;-44
2022/10/07 06:37:35;;;;;;;11.63;3.20;;;;;;;14.02;69.01;100831.26;1802532;79;21871;-44
2022/10/07 06:40:04;;;;;;;7.62;3.55;;;;;;;14.03;68.74;100823.31;1802968;79;21004;-44
2022/10/07 06:42:31;;;;;;;8.50;3.25;;;;;;;14.05;68.58;100834.64;1801160;79;21586;-44
2022/10/07 06:45:00;;;;;;;12.05;3.42;;;;;;;14.09;68.47;100832.80;1782119;79;21237;-44
2022/10/07 06:47:26;;;;;;;8.25;2.50;;;;;;;14.12;67.97;100829.97;1802446;79;20946;-44
2022/10/07 06:49:54;;;;;;;6.65;2.62;;;;;;;13.91;67.26;100793.34;1792536;79;20956;-44
2022/10/07 06:52:21;;;;;;;10.00;3.02;;;;;;;14.20;66.52;100835.84;1785909;80;21483;-44
2022/10/07 06:54:47;;;;;;;7.72;2.58;;;;;;;14.23;64.88;100831.07;1786109;80;20968;-41
2022/10/07 06:57:14;;;;;;;8.58;2.52;;;;;;;14.24;63.91;100830.70;1753314;80;21124;-41
2022/10/07 06:59:46;;;;;;;11.75;2.95;;;;;;;14.26;63.97;100839.91;1785975;80;21019;-41
2022/10/07 07:02:15;;;;;;;9.50;2.35;;;;;;;14.27;63.55;100836.84;1753386;80;21020;-44
2022/10/07 07:04:42;;;;;;;5.78;2.50;;;;;;;14.29;63.42;100837.84;1786180;80;21419;-45
2022/10/07 07:07:11;;;;;;;8.30;2.72;;;;;;;14.31;63.16;100841.02;1786163;80;21385;-45
2022/10/07 07:09:39;;;;;;;10.05;2.42;;;;;;;14.34;62.75;100845.20;1786052;80;21171;-45
2022/10/07 07:12:07;;;;;;;7.92;2.22;;;;;;;14.36;62.21;100839.44;1785841;80;21015;-45
2022/10/07 07:14:37;;;;;;;6.60;2.33;;;;;;;14.39;61.61;100839.30;1786269;80;20980;-45
2022/10/07 07:17:07;;;;;;;8.70;2.65;;;;;;;14.41;61.34;100841.13;1786069;80;20972;-45
2022/10/07 07:19:35;;;;;;;10.75;2.72;;;;;;;14.42;61.19;100834.53;1786047;80;20975;-45
2022/10/07 07:22:03;;;;;;;8.35;2.40;;;;;;;14.45;61.33;100835.98;1786203;80;21111;-45
2022/10/07 07:24:30;;;;;;;8.15;2.72;;;;;;;14.53;61.17;100839.11;1786077;80;20976;-45
2022/10/07 07:26:57;;;;;;;8.08;2.27;;;;;;;14.65;61.29;100840.42;1780398;79;21091;-45
2022/10/07 07:29:26;;;;;;;8.70;2.42;;;;;;;14.76;60.40;100836.61;1775434;80;21087;-45
2022/10/07 07:31:55;;;;;;;7.60;2.75;;;;;;;14.82;60.30;100831.65;1775687;80;20973;-45
2022/10/07 07:34:23;;;;;;;7.95;2.58;;;;;;;14.89;60.31;100838.09;1775450;80;23308;-45
2022/10/07 07:36:52;;;;;;;8.95;2.60;;;;;;;14.95;59.86;100831.80;1775475;80;21040;-45
2022/10/07 07:39:21;;;;;;;8.60;2.60;;;;;;;15.02;59.68;100834.69;1774898;80;21079;-45
2022/10/07 07:41:50;;;;;;;9.70;2.65;;;;;;;15.09;58.64;100836.25;1774380;80;20992;-45
2022/10/07 07:44:19;;;;;;;8.85;2.83;;;;;;;15.09;58.64;100836.25;1774924;80;21123;-45
2022/10/07 07:46:50;;;;;;;9.45;2.80;;;;;;;15.10;58.53;100826.31;1774985;80;21205;-45
2022/10/07 07:49:17;;;;;;;7.45;3.05;;;;;;;15.16;58.33;100829.00;1774794;80;21068;-45
2022/10/07 07:51:44;;;;;;;6.72;2.52;;;;;;;15.22;57.95;100833.63;1775069;80;20972;-45
2022/10/07 07:54:13;;;;;;;9.75;3.00;;;;;;;15.28;57.30;100830.05;1774481;80;21056;-45
2022/10/07 07:56:43;;;;;;;;;;;;;;;15.32;57.48;100830.92;1777452;80;20993;-45
2022/10/07 07:59:11;;;;;;;12.30;2.40;;;;;;;15.39;57.13;100836.56;1775118;80;21075;-45
2022/10/07 08:01:37;;;;;;;8.38;2.72;;;;;;;15.37;57.42;100837.48;1774754;80;20956;-45
2022/10/07 08:04:06;;;;;;;12.98;2.52;;;;;;;15.46;57.13;100828.51;1774557;80;20997;-45
2022/10/07 08:06:33;;;;;;;8.28;2.30;;;;;;;15.54;56.71;100827.57;1774650;80;21027;-45
2022/10/07 08:09:03;;;;;;;7.65;2.60;;;;;;;15.59;56.83;100833.52;1774952;80;20976;-45
2022/10/07 08:11:33;;;;;;;5.50;2.50;;;;;;;15.66;55.86;100827.44;1775126;80;21307;-45
2022/10/07 08:14:02;;;;;;;6.92;2.85;;;;;;;15.71;55.40;100827.16;1774371;80;21028;-45
2022/10/07 08:16:32;;;;;;;7.92;2.70;;;;;;;15.73;55.20;100824.86;1774975;80;21044;-45
2022/10/07 08:19:01;;;;;;;4.92;2.12;;;;;;;15.80;54.85;100817.37;1775067;79;20980;-45
2022/10/07 08:21:34;;;;;;;7.15;2.58;;;;;;;15.87;55.22;100816.95;1775102;80;21510;-45
2022/10/07 08:24:04;;;;;;;5.17;2.33;;;;;;;15.95;55.03;100821.41;1774546;80;23125;-45
2022/10/07 08:26:34;;;;;;;6.78;2.65;;;;;;;16.03;55.38;100818.23;1774607;79;21011;-45
2022/10/07 08:29:03;;;;;;;10.18;2.52;;;;;;;16.15;54.90;100815.94;1777127;78;20925;-45
2022/10/07 08:31:31;;;;;;;8.30;2.35;;;;;;;16.22;53.55;100819.58;1777477;80;21671;-45
2022/10/07 08:34:00;;;;;;;8.80;2.50;;;;;;;16.30;53.95;100823.27;1777429;80;21032;-45
2022/10/07 08:36:28;;;;;;;9.40;2.30;;;;;;;16.42;53.87;100817.04;1777563;80;21112;-45
2022/10/07 08:38:55;;;;;;;4.53;2.10;;;;;;;16.52;52.65;100814.28;1777447;80;20964;-45
2022/10/07 08:41:40;;;;;;;5.12;1.90;;;;;;;16.58;52.10;100815.60;1747082;80;21000;-45
2022/10/07 08:44:18;;;;;;;8.83;2.50;;;;;;;16.63;52.49;100812.56;1777311;80;21349;-45
2022/10/07 08:47:11;;;;;;;9.43;2.75;;;;;;;16.69;52.84;100820.70;1777427;80;21052;-45
2022/10/07 08:50:07;;;;;;;5.95;1.90;;;;;;;16.76;52.76;100819.44;1777615;80;21116;-45
2022/10/07 08:52:49;;;;;;;7.35;2.25;;;;;;;16.87;52.63;100814.14;1777566;80;21195;-45
2022/10/07 08:55:23;;;;;;;6.37;2.20;;;;;;;16.99;51.86;100814.54;1777583;80;20988;-45
2022/10/07 08:58:04;;;;;;;7.40;2.30;;;;;;;17.07;51.36;100814.86;1778121;80;21044;-45
2022/10/07 09:00:58;;;;;;;8.90;2.22;;;;;;;17.14;50.87;100816.31;1776867;80;21048;-45
2022/10/07 09:03:45;;;;;;;7.95;2.25;;;;;;;17.21;51.26;100813.70;1777432;80;21108;-45
2022/10/07 09:06:18;;;;;;;7.55;2.12;;;;;;;17.32;50.52;100809.17;1777259;80;21003;-45
2022/10/07 09:08:47;;;;;;;6.10;2.30;;;;;;;17.36;50.56;100804.53;1777754;80;21000;-45
2022/10/07 09:11:19;;;;;;;7.67;2.55;;;;;;;17.38;50.50;100804.36;1777471;80;21071;-45
2022/10/07 09:13:56;;;;;;;5.95;2.30;;;;;;;17.43;51.24;100805.22;1777736;80;21028;-45
2022/10/07 09:16:40;;;;;;;7.22;2.65;;;;;;;17.48;51.42;100803.50;1777472;80;21092;-44
2022/10/07 09:19:12;;;;;;;6.67;2.80;;;;;;;17.54;51.52;100805.56;1777661;80;20932;-45
2022/10/07 09:21:50;;;;;;;7.17;2.70;;;;;;;17.63;51.96;100806.11;1761586;80;21085;-45
2022/10/07 09:26:17;;;;;;;6.70;2.60;;;;;;;17.86;51.74;100799.17;1878189;74;23103;-44
2022/10/07 09:28:44;;;;;;;9.18;2.60;;;;;;;17.87;51.27;100804.05;1866341;76;20998;-45
2022/10/07 09:31:14;;;;;;;6.92;2.75;;;;;;;17.95;49.45;100805.73;1858492;77;21086;-45
2022/10/07 09:33:44;;;;;;;5.17;2.50;;;;;;;18.01;49.17;100800.13;1851939;77;20943;-45
2022/10/07 09:36:17;;;;;;;5.03;2.45;;;;;;;18.09;48.53;100795.71;1851496;77;20966;-45
2022/10/07 09:38:48;;;;;;;7.25;2.80;;;;;;;18.17;48.82;100803.43;1852069;77;20923;-45
2022/10/07 09:41:30;;;;;;;7.00;2.77;;;;;;;18.25;47.89;100796.27;1851578;77;20954;-45
2022/10/07 09:44:12;;;;;;;7.20;2.80;;;;;;;18.34;48.02;100794.61;1851527;77;23140;-45
2022/10/07 09:46:50;;;;;;;3.67;2.20;;;;;;;18.43;48.08;100799.20;1858888;77;20924;-45
2022/10/07 09:49:35;;;;;;;6.28;2.72;;;;;;;18.53;46.64;100794.44;1859086;77;20912;-45
2022/10/07 09:52:21;;;;;;;6.10;2.25;;;;;;;18.60;46.30;100799.98;1856494;76;20916;-45
2022/10/07 09:54:51;;;;;;;6.28;2.75;;;;;;;18.74;46.52;100792.44;1852761;77;21020;-45
2022/10/07 09:57:35;;;;;;;5.90;2.50;;;;;;;18.93;46.46;100787.29;1852342;77;21125;-45
2022/10/07 10:00:16;;;;;;;6.92;2.35;;;;;;;19.09;46.09;100794.11;1853773;76;20980;-45
2022/10/07 10:02:49;;;;;;;6.42;2.60;;;;;;;19.24;45.68;100788.12;1840522;77;21445;-45
2022/10/07 10:05:34;;;;;;;5.90;2.37;;;;;;;19.37;44.54;100778.95;1851904;77;20963;-42
2022/10/07 10:08:05;;;;;;;5.67;2.60;;;;;;;19.48;44.65;100783.38;1825185;78;20999;-41
2022/10/07 10:10:35;;;;;;;8.20;2.67;;;;;;;19.57;44.91;100775.36;1840690;77;21178;-42
2022/10/07 10:13:03;;;;;;;6.55;2.40;;;;;;;19.69;45.01;100769.53;1825150;77;20950;-41
2022/10/07 10:15:42;;;;;;;7.60;2.52;;;;;;;19.83;44.37;100764.88;1857739;77;22133;-41
2022/10/07 10:18:36;;;;;;;4.80;2.00;;;;;;;19.99;44.07;100750.78;1857141;77;21349;-42
2022/10/07 10:21:34;;;;;;;5.85;2.02;;;;;;;20.22;43.27;100753.97;1836339;78;21053;-42
2022/10/07 10:24:07;;;;;;;4.17;1.92;;;;;;;20.39;41.62;100754.60;1854828;77;23156;-42
2022/10/07 10:26:58;;;;;;;5.10;2.35;;;;;;;20.51;41.04;100749.90;1825957;77;21562;-42
2022/10/07 10:29:47;;;;;;;5.17;2.02;;;;;;;20.58;41.23;100737.48;1827738;78;21010;-41
2022/10/07 10:32:35;;;;;;;6.03;2.20;;;;;;;20.72;40.98;100743.02;1826148;77;21362;-44
2022/10/07 10:35:08;;;;;;;4.62;2.40;;;;;;;20.80;40.82;100739.86;1818034;77;21468;-45
2022/10/07 10:37:56;;;;;;;5.47;2.40;;;;;;;20.85;40.29;100740.05;1828442;78;21196;-45
2022/10/07 10:40:37;;;;;;;4.40;1.80;;;;;;;20.93;40.69;100729.20;1829161;77;20987;-45
2022/10/07 10:43:27;;;;;;;4.03;2.05;;;;;;;21.04;39.78;100731.95;1831065;77;20995;-45
2022/10/07 10:46:04;;;;;;;5.03;2.00;;;;;;;21.05;38.65;100721.13;1828396;77;21063;-45
2022/10/07 10:49:10;;;;;;;4.80;2.35;;;;;;;20.97;38.59;100727.23;1828269;78;20923;-45
2022/10/07 10:52:08;;;;;;;5.87;2.45;;;;;;;20.89;39.79;100727.05;1823847;78;21268;-45
2022/10/07 10:54:53;;;;;;;5.20;2.67;;;;;;;20.83;39.52;100727.25;1823538;78;20939;-45
2022/10/07 10:57:32;;;;;;;5.87;2.62;;;;;;;20.79;40.97;100718.20;1818424;78;21062;-45
2022/10/07 11:00:12;;;;;;;7.62;2.70;;;;;;;20.90;40.57;100725.88;1823559;78;21470;-45
2022/10/07 11:03:06;;;;;;;5.55;2.50;;;;;;;21.05;39.87;100724.67;1824971;77;21489;-45
2022/10/07 11:05:36;;;;;;;8.50;2.65;;;;;;;21.23;39.72;100713.02;1846212;77;21168;-45
2022/10/07 11:08:16;;;;;;;6.10;2.60;;;;;;;21.48;39.02;100713.53;1847549;77;20936;-45
2022/10/07 11:11:10;;;;;;;6.60;2.50;;;;;;;21.63;38.20;100713.08;1847607;77;20992;-45
2022/10/07 11:13:54;;;;;;;3.80;2.00;;;;;;;21.76;38.27;100717.53;1847483;77;21036;-45
2022/10/07 11:16:35;;;;;;;4.60;2.20;;;;;;;21.94;37.72;100707.20;1847548;77;21919;-45
2022/10/07 11:19:21;;;;;;;5.45;2.05;;;;;;;22.15;37.45;100705.50;1847275;77;23146;-45
2022/10/07 11:21:52;;;;;;;5.62;2.80;;;;;;;22.36;37.28;100708.91;1847753;77;21550;-45
2022/10/07 11:24:35;;;;;;;5.33;2.02;;;;;;;22.48;36.04;100702.09;1847360;77;21648;-45
2022/10/07 11:27:22;;;;;;;5.42;2.15;;;;;;;22.45;36.27;100705.67;1847519;77;21499;-45
2022/10/07 11:30:17;;;;;;;4.72;2.27;;;;;;;22.43;35.56;100697.78;1847490;77;20936;-45
2022/10/07 11:32:55;;;;;;;3.60;1.98;;;;;;;22.33;35.11;100695.09;1847790;77;22061;-45
2022/10/07 11:35:34;;;;;;;5.10;1.95;;;;;;;22.20;35.51;100697.58;1847501;77;20984;-45
2022/10/07 11:38:14;;;;;;;5.10;2.25;;;;;;;22.19;36.20;100694.61;1847603;77;20991;-45
2022/10/07 11:40:56;;;;;;;6.28;2.35;;;;;;;22.35;35.72;100690.75;1847587;77;21558;-45
2022/10/07 11:43:33;;;;;;;4.17;1.92;;;;;;;22.41;35.50;100695.25;1847793;77;20940;-45
2022/10/07 11:46:09;;;;;;;5.53;2.02;;;;;;;22.60;36.35;100691.93;1847707;77;21562;-46
2022/10/07 11:48:44;;;;;;;5.97;2.52;;;;;;;22.95;35.21;100692.97;1840885;77;21521;-45
2022/10/07 11:51:30;;;;;;;4.47;2.10;;;;;;;23.21;34.21;100690.73;1844158;77;20971;-45
2022/10/07 11:54:01;;;;;;;4.62;1.95;;;;;;;23.35;34.15;100689.17;1837564;78;21055;-45
2022/10/07 11:56:38;;;;;;;4.75;2.00;;;;;;;23.55;33.56;100681.84;1787518;78;21067;-45
2022/10/07 11:59:06;;;;;;;4.53;2.00;;;;;;;23.79;32.56;100676.56;1837630;78;21227;-45
2022/10/07 12:01:51;;;;;;;5.75;2.02;;;;;;;24.05;32.91;100675.00;1838011;78;20917;-46
2022/10/07 12:04:35;;;;;;;8.85;3.10;;;;;;;24.36;31.94;100674.92;1812696;78;20936;-45